Latest Weather Observations for Butlers Gorge

IDT60801

Issued at 3:02 am EST Tuesday 28 April 2015 (issued every 30 minutes, with the page automatically refreshed every 10 minutes)

About weather observations | Map of weather stations | Latest weather observations for TAS | Other Formats
Station Details ID: 096003 Name: BUTLERS GORGE Lat: -42.28 Lon: 146.28 Height: 667.0 m
Data from the previous 72 hours. | See also: Recent months at Butlers Gorge
Date/Time
EST
Temp
°C
App
Temp
°C
Dew
Point
Rel
Hum
%
Delta-T
°C
Wind Press
QNH
hPa
Press
MSL
hPa
Rain
since 9 am
mm
Dir
 
Spd
km/h
Gust
km/h
Spd
kts
Gust
kts
28/03:00am 5.2 2.0 2.9 85 1.0 NNW 9 17 5 9 - - 0.4
28/02:30am 5.0 2.1 2.7 85 1.0 NNW 7 11 4 6 - - 0.4
28/02:00am 4.9 2.1 2.9 87 0.9 N 7 9 4 5 - - 0.4
28/01:30am 4.9 2.2 2.6 85 1.0 NNW 6 9 3 5 - - 0.2
28/01:00am 5.2 2.5 2.6 83 1.1 W 6 11 3 6 - - 0.2
28/12:30am 5.1 2.2 2.6 84 1.1 NW 7 11 4 6 - - 0.2
28/12:00am 5.1 1.9 3.0 86 0.9 NNW 9 13 5 7 - - 0.2
 
Date/Time
EST
Temp
°C
App
Temp
°C
Dew
Point
Rel
Hum
%
Delta-T
°C
Wind Press
QNH
hPa
Press
MSL
hPa
Rain
since 9 am
mm
Dir
 
Spd
km/h
Gust
km/h
Spd
kts
Gust
kts
27/11:30pm 5.2 2.4 3.2 87 0.9 NW 7 11 4 6 - - 0.2
27/11:00pm 5.1 3.3 3.3 88 0.8 W 2 9 1 5 - - 0.2
27/10:30pm 5.2 2.6 3.1 86 0.9 W 6 7 3 4 - - 0.2
27/10:00pm 5.2 2.6 3.2 87 0.9 N 6 7 3 4 - - 0.2
27/09:30pm 5.2 3.0 3.2 87 0.9 WNW 4 13 2 7 - - 0.2
27/09:00pm 5.1 3.3 3.6 90 0.7 SW 2 9 1 5 - - 0.2
27/08:30pm 5.0 2.3 3.5 90 0.7 SW 7 13 4 7 - - 0.2
27/08:00pm 5.0 2.5 4.0 93 0.4 WSW 6 13 3 7 - - 0.2
27/07:30pm 4.9 3.6 3.9 93 0.4 CALM 0 0 0 0 - - 0.2
27/07:00pm 5.4 3.6 3.7 89 0.7 WNW 2 7 1 4 - - 0.2
27/06:30pm 5.7 3.2 3.7 87 0.9 SW 6 9 3 5 - - 0.2
27/06:00pm 6.1 3.7 4.1 87 0.9 W 6 9 3 5 - - 0.2
27/05:30pm 6.3 3.7 4.1 86 1.0 WNW 7 15 4 8 - - 0.2
27/05:00pm 6.6 3.6 4.1 84 1.1 WSW 9 13 5 7 - - 0.2
27/04:30pm 7.0 4.4 4.0 81 1.3 WSW 7 13 4 7 - - 0.2
27/04:00pm 7.9 4.9 4.1 77 1.7 W 9 15 5 8 - - 0.2
27/03:30pm 7.9 4.0 3.6 74 1.9 SW 13 24 7 13 - - 0.2
27/03:00pm 8.3 5.4 2.8 68 2.4 W 7 15 4 8 - - 0.2
27/02:30pm 7.8 4.6 3.1 72 2.1 W 9 15 5 8 - - 0.2
27/02:00pm 7.9 4.8 3.4 73 2.0 WSW 9 15 5 8 - - 0.2
27/01:30pm 7.7 3.8 3.4 74 1.9 WSW 13 20 7 11 - - 0.2
27/01:00pm 7.4 4.0 3.8 78 1.6 WSW 11 24 6 13 - - 0.2
27/12:30pm 7.7 4.5 3.2 73 2.0 W 9 17 5 9 - - 0.2
27/12:00pm 7.5 4.0 3.4 75 1.8 W 11 19 6 10 - - 0.2
27/11:30am 7.1 3.2 3.3 77 1.7 WSW 13 22 7 12 - - 0.2
27/11:00am 7.5 4.3 3.0 73 2.0 W 9 13 5 7 - - 0.2
27/10:30am 7.9 5.2 3.8 75 1.8 WNW 7 17 4 9 - - 0.2
27/10:00am 5.2 2.4 2.9 85 1.0 N 7 9 4 5 - - 0.2
27/09:30am 5.4 1.9 3.7 89 0.7 WSW 11 19 6 10 - - 0.2
27/09:00am 5.6 3.0 4.2 91 0.6 W 7 13 4 7 - - 4.0
27/08:30am 5.0 2.3 3.7 91 0.6 WSW 7 11 4 6 - - 4.0
27/08:00am 4.7 2.5 3.5 92 0.5 WSW 4 9 2 5 - - 4.0
27/07:30am 4.4 1.2 3.1 91 0.6 WSW 9 15 5 8 - - 4.0
27/07:00am 4.1 1.3 3.1 93 0.4 WSW 7 13 4 7 - - 4.0
27/06:30am 3.7 2.1 2.5 92 0.5 CALM 0 6 0 3 - - 3.8
27/06:00am 4.2 1.6 3.0 92 0.5 WSW 6 9 3 5 - - 3.8
27/05:30am 4.1 1.8 2.9 92 0.5 W 4 11 2 6 - - 3.8
27/05:00am 4.2 1.5 2.9 91 0.6 WSW 6 13 3 7 - - 3.8
27/04:30am 4.3 1.0 2.7 89 0.7 W 9 19 5 10 - - 3.8
27/04:00am 4.3 1.1 2.8 90 0.6 W 9 19 5 10 - - 3.8
27/03:30am 4.1 1.2 2.8 91 0.5 WNW 7 11 4 6 - - 3.6
27/03:00am 4.1 1.2 2.6 90 0.6 NNW 7 19 4 10 - - 3.6
27/02:30am 4.0 0.7 2.2 88 0.7 NW 9 20 5 11 - - 3.6
27/02:00am 3.9 0.6 2.6 91 0.5 NNE 9 13 5 7 - - 3.6
27/01:30am 4.2 0.9 2.6 89 0.7 NNW 9 22 5 12 - - 3.4
27/01:00am 4.2 0.9 2.6 89 0.7 N 9 17 5 9 - - 3.4
27/12:30am 4.3 1.4 2.5 88 0.8 NNW 7 13 4 7 - - 3.4
27/12:00am 4.3 1.6 2.7 89 0.7 NNW 6 9 3 5 - - 3.4
 
Date/Time
EST
Temp
°C
App
Temp
°C
Dew
Point
Rel
Hum
%
Delta-T
°C
Wind Press
QNH
hPa
Press
MSL
hPa
Rain
since 9 am
mm
Dir
 
Spd
km/h
Gust
km/h
Spd
kts
Gust
kts
26/11:30pm 4.4 0.3 2.4 87 0.8 WNW 13 30 7 16 - - 3.4
26/11:00pm 4.3 1.0 2.7 89 0.7 NW 9 19 5 10 - - 3.4
26/10:30pm 4.3 1.1 3.0 91 0.6 NNE 9 11 5 6 - - 3.4
26/10:00pm 4.4 1.5 2.6 88 0.8 NNW 7 11 4 6 - - 3.2
26/09:30pm 4.5 0.9 2.8 89 0.7 NW 11 17 6 9 - - 3.2
26/09:00pm 4.7 1.4 2.7 87 0.8 W 9 17 5 9 - - 3.2
26/08:30pm 4.9 1.7 3.1 88 0.8 WSW 9 20 5 11 - - 3.2
26/08:00pm 5.0 1.8 3.3 89 0.7 W 9 20 5 11 - - 2.8
26/07:30pm 5.1 3.4 3.8 91 0.6 WSW 2 17 1 9 - - 2.6
26/07:00pm 5.2 2.5 3.7 90 0.7 WSW 7 13 4 7 - - 2.2
26/06:30pm 5.3 2.3 4.0 91 0.6 WSW 9 17 5 9 - - 2.2
26/06:00pm 5.4 1.5 3.4 87 0.9 SW 13 24 7 13 - - 1.8
26/05:30pm 5.4 2.0 3.9 90 0.7 WSW 11 28 6 15 - - 1.8
26/05:00pm 5.7 2.4 4.3 91 0.6 SW 11 20 6 11 - - 1.6
26/04:30pm 6.0 1.4 3.8 86 1.0 SW 17 30 9 16 - - 1.2
26/04:00pm 6.2 2.9 4.4 88 0.8 WSW 11 19 6 10 - - 1.2
26/03:30pm 6.4 3.1 4.6 88 0.8 WSW 11 20 6 11 - - 1.0
26/03:00pm 6.4 2.7 4.4 87 0.9 SW 13 28 7 15 - - 0.4
26/02:30pm 7.2 3.3 3.4 77 1.7 WSW 13 20 7 11 - - 0.0
26/02:00pm 7.6 3.8 3.8 77 1.7 WSW 13 22 7 12 - - 0.0
26/01:30pm 7.2 3.7 3.4 77 1.7 WSW 11 17 6 9 - - 0.0
26/01:00pm 7.9 4.0 3.4 73 2.0 WSW 13 24 7 13 - - 0.0
26/12:30pm 6.9 2.3 3.9 81 1.3 SW 17 30 9 16 - - 0.0
26/12:00pm 7.1 3.3 3.7 79 1.5 WSW 13 20 7 11 - - 0.0
26/11:30am 6.6 3.5 3.4 80 1.4 WSW 9 17 5 9 - - 0.0
26/11:00am 6.4 3.1 2.7 77 1.6 WNW 9 13 5 7 - - 0.0
26/10:30am 5.9 2.5 2.0 76 1.6 NW 9 20 5 11 - - 0.0
26/10:00am 5.2 2.2 1.7 78 1.5 NNW 7 13 4 7 - - 0.0
26/09:30am 5.2 2.1 1.1 75 1.7 NW 7 15 4 8 - - 0.0
26/09:00am 5.0 1.1 0.9 75 1.7 NNW 11 20 6 11 - - 0.0
26/08:30am 4.9 1.7 1.0 76 1.6 NNW 7 13 4 7 - - 0.0
26/08:00am 4.1 1.2 1.6 84 1.0 N 6 17 3 9 - - 0.0
26/07:30am 4.1 0.6 1.1 81 1.2 WNW 9 17 5 9 - - 0.0
26/07:00am 4.0 -0.3 0.7 79 1.3 SW 13 22 7 12 - - 0.0
26/06:30am 4.1 1.1 1.1 81 1.2 NNW 6 19 3 10 - - 0.0
26/06:00am 4.0 0.5 1.5 84 1.0 N 9 15 5 8 - - 0.0
26/05:30am 4.3 1.7 1.2 80 1.3 WNW 4 9 2 5 - - 0.0
26/05:00am 4.3 0.8 1.5 82 1.1 W 9 13 5 7 - - 0.0
26/04:30am 3.9 1.0 1.4 84 1.0 WSW 6 9 3 5 - - 0.0
26/04:00am 3.9 1.4 1.3 83 1.1 SW 4 7 2 4 - - 0.0
26/03:30am 3.6 1.3 0.7 81 1.2 WSW 2 11 1 6 - - 0.0
26/03:00am 4.1 1.0 0.3 76 1.5 W 6 9 3 5 - - 0.0
26/02:30am 4.5 1.4 1.2 79 1.3 WSW 7 13 4 7 - - 0.0
26/02:00am 4.5 1.4 1.2 79 1.3 WNW 7 11 4 6 - - 0.0
26/01:30am 4.4 0.6 1.6 82 1.2 WSW 11 17 6 9 - - 0.0
26/01:00am 4.7 1.7 1.9 82 1.2 W 7 13 4 7 - - 0.0
26/12:30am 4.8 1.8 2.0 82 1.2 W 7 11 4 6 - - 0.0
26/12:00am 5.1 2.4 2.5 83 1.1 WSW 6 11 3 6 - - 0.0
 
Date/Time
EST
Temp
°C
App
Temp
°C
Dew
Point
Rel
Hum
%
Delta-T
°C
Wind Press
QNH
hPa
Press
MSL
hPa
Rain
since 9 am
mm
Dir
 
Spd
km/h
Gust
km/h
Spd
kts
Gust
kts
25/11:30pm 5.2 2.5 2.6 83 1.1 WSW 6 13 3 7 - - 0.0
25/11:00pm 5.4 2.2 3.1 85 1.0 SW 9 13 5 7 - - 0.0
25/10:30pm 5.6 2.4 3.3 85 1.0 WSW 9 13 5 7 - - 0.0
25/10:00pm 5.7 4.3 3.4 85 1.0 CALM 0 0 0 0 - - 0.0
25/09:30pm 5.7 3.2 3.5 86 1.0 SSE 6 9 3 5 - - 0.0
25/09:00pm 5.9 3.2 3.6 85 1.0 S 7 11 4 6 - - 0.0
25/08:30pm 6.3 5.0 4.0 85 1.0 CALM 0 6 0 3 - - 0.0
25/08:00pm 6.5 4.5 4.2 85 1.0 WSW 4 7 2 4 - - 0.0
25/07:30pm 6.7 5.4 4.2 84 1.1 CALM 0 4 0 2 - - 0.0
25/07:00pm 6.9 4.5 4.4 84 1.1 S 6 9 3 5 - - 0.0
25/06:30pm 7.0 4.6 4.5 84 1.1 SW 6 9 3 5 - - 0.0
25/06:00pm 7.3 5.4 4.8 84 1.1 S 4 7 2 4 - - 0.0
25/05:30pm 7.7 5.8 4.8 82 1.3 S 4 11 2 6 - - 0.0
25/05:00pm 8.0 5.7 4.8 80 1.5 WSW 6 13 3 7 - - 0.0
25/04:30pm 8.7 6.3 5.3 79 1.6 SSW 7 13 4 7 - - 0.0
25/04:00pm 9.1 6.8 5.8 80 1.6 SSE 7 13 4 7 - - 0.0
25/03:30pm 9.4 6.8 6.1 80 1.6 SSW 9 15 5 8 - - 0.0
25/03:00pm 10.4 9.1 5.8 73 2.2 SSW 2 9 1 5 - - 0.0
25/02:30pm 10.4 8.8 4.3 66 2.8 SW 2 7 1 4 - - 0.0
25/02:00pm 9.9 7.5 5.3 73 2.2 SSW 7 11 4 6 - - 0.0
25/01:30pm 10.1 8.6 4.9 70 2.4 S 2 7 1 4 - - 0.0
25/01:00pm 9.5 7.3 5.3 75 2.0 SE 6 7 3 4 - - 0.0
25/12:30pm 9.5 7.3 5.1 74 2.1 ENE 6 9 3 5 - - 0.0
25/12:00pm 9.9 7.7 5.1 72 2.3 NE 6 9 3 5 - - 0.0
25/11:30am 9.4 7.2 5.2 75 2.0 ENE 6 7 3 4 - - 0.0
25/11:00am 9.1 6.5 4.3 72 2.2 ENE 7 9 4 5 - - 0.0
25/10:30am 9.3 6.7 4.3 71 2.3 E 7 13 4 7 - - 0.0
25/10:00am 9.5 7.8 6.0 79 1.7 NE 4 7 2 4 - - 0.0
25/09:30am 8.5 6.4 5.8 83 1.3 NNE 6 9 3 5 - - 0.0
25/09:00am 7.0 5.7 6.1 94 0.4 NE 2 7 1 4 - - 0.0
25/08:30am 6.1 5.0 5.2 94 0.4 CALM 0 0 0 0 - - 0.0
25/08:00am 6.1 5.1 5.4 95 0.3 CALM 0 0 0 0 - - 0.0
25/07:30am 4.6 3.3 3.9 95 0.3 CALM 0 0 0 0 - - 0.0
25/07:00am 4.8 3.5 3.9 94 0.4 CALM 0 0 0 0 - - 0.0
25/06:30am 5.5 4.3 4.5 93 0.4 CALM 0 2 0 1 - - 0.0
25/06:00am 6.2 4.7 5.0 92 0.5 ENE 2 6 1 3 - - 0.0
25/05:30am 6.6 5.6 5.7 94 0.4 CALM 0 0 0 0 - - 0.0
25/05:00am 6.5 5.5 5.6 94 0.4 CALM 0 4 0 2 - - 0.0
25/04:30am 6.3 4.9 5.3 93 0.5 NE 2 7 1 4 - - 0.0
25/04:00am 6.3 5.2 5.1 92 0.5 CALM 0 0 0 0 - - 0.0
25/03:30am 6.3 5.2 5.1 92 0.5 CALM 0 0 0 0 - - 0.0

Other Formats:

Comma delimited format used in spreadsheet applications
http://www.bom.gov.au/fwo/IDT60801/IDT60801.94959.axf

JavaScript Object Notation format (JSON) in row-major order
http://www.bom.gov.au/fwo/IDT60801/IDT60801.94959.json